createdAt,value
2023-02-15T00:02:04.819Z,21.70
2023-02-15T00:04:58.119Z,22.23
2023-02-15T00:07:24.957Z,23.30
2023-02-15T00:09:51.949Z,21.60
2023-02-15T00:12:18.793Z,21.50
2023-02-15T00:14:45.819Z,21.13
2023-02-15T00:17:12.817Z,22.47
2023-02-15T00:19:41.041Z,22.83
2023-02-15T00:22:07.784Z,23.17
2023-02-15T00:24:34.936Z,21.50
2023-02-15T00:27:01.900Z,22.50
2023-02-15T00:29:29.228Z,22.97
2023-02-15T00:31:56.646Z,22.43
2023-02-15T00:34:26.709Z,21.03
2023-02-15T00:36:54.051Z,22.87
2023-02-15T00:39:21.549Z,21.93
2023-02-15T00:41:48.811Z,21.30
2023-02-15T00:44:16.079Z,21.83
2023-02-15T00:46:43.292Z,22.07
2023-02-15T00:49:10.810Z,22.53
2023-02-15T00:51:38.817Z,21.20
2023-02-15T00:54:06.982Z,21.73
2023-02-15T00:56:34.115Z,21.00
2023-02-15T00:59:01.016Z,22.67
2023-02-15T01:01:28.604Z,20.93
2023-02-15T01:03:55.750Z,20.80
2023-02-15T01:06:23.249Z,21.17
2023-02-15T01:08:50.228Z,21.30
2023-02-15T01:11:23.321Z,20.23
2023-02-15T01:13:53.724Z,20.37
2023-02-15T01:16:21.076Z,20.67
2023-02-15T01:18:48.740Z,20.83
2023-02-15T01:21:18.926Z,20.20
2023-02-15T01:23:46.000Z,19.03
2023-02-15T01:26:13.570Z,19.60
2023-02-15T01:28:43.263Z,19.53
2023-02-15T01:31:14.424Z,20.33
2023-02-15T01:33:42.282Z,19.67
2023-02-15T01:36:10.680Z,20.17
2023-02-15T01:38:40.953Z,19.00
2023-02-15T01:41:28.203Z,19.33
2023-02-15T01:44:00.510Z,19.37
2023-02-15T01:46:36.220Z,19.53
2023-02-15T01:49:09.469Z,20.43
2023-02-15T01:51:38.421Z,19.33
2023-02-15T01:54:19.391Z,20.00
2023-02-15T01:56:46.519Z,19.93
2023-02-15T01:59:17.697Z,18.63
2023-02-15T02:01:45.323Z,21.17
2023-02-15T02:04:18.949Z,19.00
2023-02-15T02:06:48.186Z,20.27
2023-02-15T02:09:15.406Z,19.43
2023-02-15T02:11:42.959Z,19.60
2023-02-15T02:14:13.190Z,19.63
2023-02-15T02:16:58.775Z,20.13
2023-02-15T02:19:44.344Z,20.47
2023-02-15T02:22:22.822Z,19.20
2023-02-15T02:25:04.850Z,21.13
2023-02-15T02:27:42.360Z,20.63
2023-02-15T02:30:21.249Z,20.93
2023-02-15T02:35:42.743Z,20.77
2023-02-15T02:38:39.411Z,21.23
2023-02-15T02:41:12.370Z,20.27
2023-02-15T02:43:49.300Z,18.77
2023-02-15T02:46:27.612Z,20.17
2023-02-15T02:48:55.875Z,19.88
2023-02-15T02:51:23.528Z,20.80
2023-02-15T02:53:54.886Z,20.87
2023-02-15T02:56:30.556Z,20.73
2023-02-15T02:59:03.676Z,19.77
2023-02-15T03:01:47.961Z,20.20
2023-02-15T03:04:18.155Z,21.00
2023-02-15T03:06:56.969Z,20.50
2023-02-15T03:09:51.378Z,20.80
2023-02-15T03:12:21.283Z,20.93
2023-02-15T03:14:58.166Z,20.37
2023-02-15T03:17:27.772Z,19.23
2023-02-15T03:19:57.873Z,19.93
2023-02-15T03:22:52.295Z,19.80
2023-02-15T03:25:27.412Z,18.93
2023-02-15T03:28:05.334Z,20.27
2023-02-15T03:30:33.272Z,20.67
2023-02-15T03:33:01.228Z,20.23
2023-02-15T03:35:35.272Z,20.80
2023-02-15T03:38:03.504Z,19.52
2023-02-15T03:40:57.704Z,20.83
2023-02-15T03:43:47.605Z,19.63
2023-02-15T03:46:22.939Z,18.73
2023-02-15T03:49:18.525Z,19.27
2023-02-15T03:51:48.000Z,18.77
2023-02-15T03:54:43.650Z,19.87
2023-02-15T03:57:39.126Z,20.02
2023-02-15T04:00:37.849Z,19.67
2023-02-15T04:03:17.327Z,19.20
2023-02-15T04:05:45.613Z,18.15
2023-02-15T04:08:13.415Z,18.90
2023-02-15T04:10:57.349Z,19.13
2023-02-15T04:13:32.089Z,19.35
2023-02-15T04:16:05.987Z,19.00
2023-02-15T04:19:01.213Z,19.73
2023-02-15T04:21:48.498Z,18.77
2023-02-15T04:24:34.392Z,19.13
2023-02-15T04:27:02.046Z,18.23
2023-02-15T04:29:29.539Z,19.08
2023-02-15T04:31:58.841Z,19.17
2023-02-15T04:34:26.048Z,18.73
2023-02-15T04:36:53.097Z,19.38
2023-02-15T04:39:20.350Z,18.25
2023-02-15T04:41:48.827Z,19.88
2023-02-15T04:44:16.254Z,18.98
2023-02-15T04:46:43.598Z,18.17
2023-02-15T04:49:10.835Z,19.42
2023-02-15T04:51:37.952Z,18.35
2023-02-15T04:54:05.687Z,18.83
2023-02-15T04:56:34.383Z,19.55
2023-02-15T04:59:01.281Z,18.60
2023-02-15T05:01:29.203Z,19.20
2023-02-15T05:03:56.151Z,18.38
2023-02-15T05:06:23.109Z,18.30
2023-02-15T05:08:50.041Z,19.10
2023-02-15T05:11:16.980Z,18.33
2023-02-15T05:13:43.754Z,20.13
2023-02-15T05:16:10.680Z,18.35
2023-02-15T05:18:37.460Z,18.23
2023-02-15T05:21:04.467Z,18.10
2023-02-15T05:23:31.413Z,18.95
2023-02-15T05:26:16.641Z,17.92
2023-02-15T05:28:43.732Z,18.85
2023-02-15T05:31:19.065Z,19.92
2023-02-15T05:33:46.480Z,18.02
2023-02-15T05:36:13.456Z,18.73
2023-02-15T05:38:40.588Z,18.77
2023-02-15T05:41:08.297Z,19.42
2023-02-15T05:43:35.453Z,19.70
2023-02-15T05:46:03.259Z,18.52
2023-02-15T05:48:31.516Z,19.60
2023-02-15T05:51:05.931Z,17.85
2023-02-15T05:53:35.160Z,19.35
2023-02-15T05:56:03.672Z,19.73
2023-02-15T05:58:36.327Z,19.42
2023-02-15T06:01:14.914Z,17.88
2023-02-15T06:03:42.425Z,18.38
2023-02-15T06:06:09.834Z,18.55
2023-02-15T06:08:37.838Z,19.70
2023-02-15T06:11:05.864Z,18.60
2023-02-15T06:13:35.934Z,18.95
2023-02-15T06:16:05.053Z,18.63
2023-02-15T06:18:32.227Z,18.13
2023-02-15T06:20:59.388Z,17.95
2023-02-15T06:23:26.405Z,19.52
2023-02-15T06:25:53.269Z,18.83
2023-02-15T06:28:22.981Z,18.85
2023-02-15T06:30:50.477Z,19.15
2023-02-15T06:33:17.503Z,19.27
2023-02-15T06:35:44.563Z,19.10
2023-02-15T06:38:11.527Z,19.40
2023-02-15T06:40:38.671Z,18.50
2023-02-15T06:43:05.486Z,18.42
2023-02-15T06:45:32.646Z,18.92
2023-02-15T06:48:02.807Z,18.65
2023-02-15T06:50:29.925Z,18.17
2023-02-15T06:52:58.394Z,19.08
2023-02-15T06:55:25.945Z,19.45
2023-02-15T06:57:52.751Z,20.00
2023-02-15T07:00:23.289Z,18.27
2023-02-15T07:02:59.664Z,19.50
2023-02-15T07:05:32.599Z,19.27
2023-02-15T07:08:00.416Z,19.67
2023-02-15T07:10:28.406Z,19.63
2023-02-15T07:12:55.458Z,18.55
2023-02-15T07:15:22.792Z,19.30
2023-02-15T07:17:50.618Z,19.80
2023-02-15T07:20:22.569Z,18.85
2023-02-15T07:22:50.144Z,18.52
2023-02-15T07:25:17.767Z,18.00
2023-02-15T07:27:45.860Z,19.95
2023-02-15T07:30:15.537Z,19.45
2023-02-15T07:33:04.810Z,20.00
2023-02-15T07:35:33.308Z,19.25
2023-02-15T07:38:00.563Z,19.60
2023-02-15T07:40:27.798Z,18.67
2023-02-15T07:42:55.913Z,19.55
2023-02-15T07:45:23.203Z,20.05
2023-02-15T07:47:50.085Z,19.48
2023-02-15T07:50:17.066Z,19.45
2023-02-15T07:52:43.916Z,19.33
2023-02-15T07:55:13.824Z,18.92
2023-02-15T07:57:45.778Z,19.73
2023-02-15T08:00:14.320Z,18.05
2023-02-15T08:02:41.318Z,19.75
2023-02-15T08:05:08.321Z,19.50
2023-02-15T08:07:35.164Z,19.33
2023-02-15T08:10:02.053Z,18.52
2023-02-15T08:12:29.045Z,18.83
2023-02-15T08:14:56.171Z,18.40
2023-02-15T08:17:23.126Z,18.03
2023-02-15T08:19:49.932Z,17.83
2023-02-15T08:22:16.824Z,17.27
2023-02-15T08:24:43.620Z,16.77
2023-02-15T08:27:12.157Z,18.03
2023-02-15T08:29:40.486Z,18.00
2023-02-15T08:32:10.525Z,16.97
2023-02-15T08:34:42.685Z,17.80
2023-02-15T08:37:10.446Z,16.77
2023-02-15T08:39:38.069Z,18.57
2023-02-15T08:42:05.171Z,18.57
2023-02-15T08:44:32.413Z,17.53
2023-02-15T08:47:04.598Z,17.23
2023-02-15T08:49:31.986Z,18.33
2023-02-15T08:51:58.864Z,18.10
2023-02-15T08:54:25.893Z,18.50
2023-02-15T08:56:52.847Z,18.37
2023-02-15T08:59:24.445Z,18.43
2023-02-15T09:01:52.833Z,17.70
2023-02-15T09:04:20.610Z,19.73
2023-02-15T09:06:49.472Z,20.00
2023-02-15T09:09:17.568Z,20.00
2023-02-15T09:11:45.964Z,19.23
2023-02-15T09:14:15.965Z,19.63
2023-02-15T09:16:47.359Z,19.70
2023-02-15T09:19:14.849Z,19.07
2023-02-15T09:21:41.798Z,19.50
2023-02-15T09:24:10.904Z,21.17
2023-02-15T09:26:43.477Z,20.80
2023-02-15T09:29:11.663Z,20.60
2023-02-15T09:31:42.547Z,19.97
2023-02-15T09:34:10.260Z,20.10
2023-02-15T09:36:39.947Z,19.87
2023-02-15T09:39:20.427Z,19.47
2023-02-15T09:41:56.450Z,18.80
2023-02-15T09:45:04.908Z,19.10
2023-02-15T09:48:03.699Z,19.10
2023-02-15T09:50:48.219Z,18.23
2023-02-15T09:53:25.717Z,20.30
2023-02-15T09:56:17.204Z,18.70
2023-02-15T09:58:50.214Z,18.53
2023-02-15T10:01:26.005Z,18.77
2023-02-15T10:03:53.279Z,19.37
2023-02-15T10:06:52.539Z,18.50
2023-02-15T10:09:42.746Z,19.23
2023-02-15T10:12:23.394Z,19.10
2023-02-15T10:15:14.952Z,18.33
2023-02-15T10:18:04.965Z,17.50
2023-02-15T10:20:40.162Z,17.73
2023-02-15T10:23:25.126Z,19.77
2023-02-15T10:26:20.902Z,18.20
2023-02-15T10:28:53.629Z,17.20
2023-02-15T10:31:34.097Z,16.70
2023-02-15T10:34:17.651Z,18.50
2023-02-15T10:37:25.224Z,16.97
2023-02-15T10:40:05.340Z,16.57
2023-02-15T10:43:00.106Z,16.93
2023-02-15T10:45:44.954Z,16.60
2023-02-15T10:48:27.295Z,16.03
2023-02-15T10:50:59.233Z,15.93
2023-02-15T10:53:33.079Z,16.60
2023-02-15T10:56:24.928Z,16.27
2023-02-15T10:59:24.020Z,16.30
2023-02-15T11:02:09.120Z,16.40
2023-02-15T11:05:03.862Z,15.37
2023-02-15T11:07:37.746Z,15.27
2023-02-15T11:10:32.224Z,15.70
2023-02-15T11:13:03.856Z,16.03
2023-02-15T11:15:38.173Z,16.10
2023-02-15T11:18:25.033Z,15.43
2023-02-15T11:21:11.526Z,16.50
2023-02-15T11:24:13.091Z,15.37
2023-02-15T11:30:15.084Z,15.47
2023-02-15T11:32:45.200Z,16.33
2023-02-15T11:35:12.516Z,15.47
2023-02-15T11:37:52.024Z,15.10
2023-02-15T11:40:35.335Z,15.77
2023-02-15T11:43:07.262Z,16.20
2023-02-15T11:45:39.436Z,16.20
2023-02-15T11:48:11.797Z,15.10
2023-02-15T11:50:44.288Z,15.53
2023-02-15T11:53:48.424Z,15.13
2023-02-15T11:56:47.798Z,16.13
2023-02-15T11:59:49.566Z,15.47
2023-02-15T12:02:23.177Z,16.27
2023-02-15T12:05:13.472Z,16.03
2023-02-15T12:07:49.607Z,16.30
2023-02-15T12:10:30.409Z,16.43
2023-02-15T12:13:10.901Z,16.63
2023-02-15T12:15:38.828Z,16.90
2023-02-15T12:18:06.955Z,16.20
2023-02-15T12:21:19.054Z,16.30
2023-02-15T12:24:21.739Z,15.90
2023-02-15T12:27:13.461Z,18.03
2023-02-15T12:29:57.574Z,16.17
2023-02-15T12:33:31.804Z,16.13
2023-02-15T12:36:29.649Z,16.07
2023-02-15T12:39:14.416Z,15.53
2023-02-15T12:41:56.651Z,16.67
2023-02-15T12:44:35.074Z,17.30
2023-02-15T12:47:20.862Z,16.53
2023-02-15T12:50:18.207Z,16.70
2023-02-15T12:53:07.620Z,15.77
2023-02-15T12:55:45.130Z,16.53
2023-02-15T12:58:28.743Z,15.53
2023-02-15T13:01:40.417Z,17.23
2023-02-15T13:04:35.535Z,17.70
2023-02-15T13:07:21.324Z,16.40
2023-02-15T13:09:54.480Z,17.67
2023-02-15T13:12:30.635Z,17.10
2023-02-15T13:15:04.262Z,17.20
2023-02-15T13:17:40.451Z,17.17
2023-02-15T13:20:21.225Z,16.27
2023-02-15T13:22:50.839Z,17.67
2023-02-15T13:25:27.401Z,15.90
2023-02-15T13:28:14.608Z,15.70
2023-02-15T13:31:05.361Z,17.77
2023-02-15T13:33:44.499Z,16.27
2023-02-15T13:36:44.980Z,16.97
2023-02-15T13:39:41.826Z,16.60
2023-02-15T13:42:31.462Z,17.17
2023-02-15T13:45:33.092Z,17.17
2023-02-15T13:48:13.085Z,16.23
2023-02-15T13:51:01.721Z,17.63
2023-02-15T13:53:28.871Z,18.30
2023-02-15T13:56:15.245Z,17.13
2023-02-15T13:59:01.905Z,17.17
2023-02-15T14:01:44.610Z,17.13
2023-02-15T14:04:42.487Z,16.77
2023-02-15T14:07:29.694Z,17.37
2023-02-15T14:10:07.666Z,17.33
2023-02-15T14:12:40.342Z,18.33
2023-02-15T14:15:25.558Z,17.07
2023-02-15T14:18:17.553Z,17.93
2023-02-15T14:21:16.998Z,18.00
2023-02-15T14:24:09.439Z,18.10
2023-02-15T14:27:00.610Z,18.20
2023-02-15T14:29:47.722Z,17.27
2023-02-15T14:32:36.517Z,16.83
2023-02-15T14:35:14.969Z,17.80
2023-02-15T14:37:59.096Z,17.93
2023-02-15T14:41:04.355Z,18.13
2023-02-15T14:44:09.712Z,17.63
2023-02-15T14:46:42.724Z,18.23
2023-02-15T14:49:32.362Z,17.97
2023-02-15T14:52:02.609Z,17.97
2023-02-15T14:54:34.205Z,18.90
2023-02-15T14:57:07.965Z,18.00
2023-02-15T14:59:59.389Z,17.53
2023-02-15T15:02:49.471Z,18.07
2023-02-15T15:05:35.526Z,18.97
2023-02-15T15:08:04.806Z,17.97
2023-02-15T15:10:43.736Z,18.03
2023-02-15T15:13:31.881Z,19.77
2023-02-15T15:16:24.965Z,16.57
2023-02-15T15:18:51.936Z,18.33
2023-02-15T15:21:49.878Z,19.23
2023-02-15T15:24:38.638Z,18.23
2023-02-15T15:27:59.637Z,19.27
2023-02-15T15:30:26.775Z,18.10
2023-02-15T15:32:59.390Z,18.87
2023-02-15T15:36:15.547Z,18.93
2023-02-15T15:38:59.286Z,18.50
2023-02-15T15:42:24.800Z,17.90
2023-02-15T15:45:18.550Z,17.23
2023-02-15T15:48:07.827Z,18.63
2023-02-15T15:50:41.465Z,17.27
2023-02-15T15:53:20.745Z,18.63
2023-02-15T15:55:49.325Z,17.87
2023-02-15T15:58:20.089Z,18.47
2023-02-15T16:00:52.912Z,18.17
2023-02-15T16:03:42.138Z,18.03
2023-02-15T16:10:36.294Z,18.00
2023-02-15T16:13:24.240Z,18.07
2023-02-15T16:15:54.547Z,17.63
2023-02-15T16:18:26.178Z,18.23
2023-02-15T16:20:58.999Z,17.77
2023-02-15T16:23:39.301Z,18.20
2023-02-15T16:26:12.031Z,19.53
2023-02-15T16:28:39.897Z,19.07
2023-02-15T16:34:13.541Z,18.20
2023-02-15T16:36:59.816Z,20.30
2023-02-15T16:39:46.670Z,18.93
2023-02-15T16:42:35.313Z,19.03
2023-02-15T16:45:21.754Z,19.23
2023-02-15T16:47:59.299Z,19.77
2023-02-15T16:50:38.202Z,20.77
2023-02-15T16:53:33.914Z,20.43
2023-02-15T16:56:03.860Z,19.60
2023-02-15T16:58:43.062Z,21.40
2023-02-15T17:01:19.040Z,21.77
2023-02-15T17:03:50.312Z,20.37
2023-02-15T17:06:46.359Z,18.93
2023-02-15T17:09:39.830Z,20.20
2023-02-15T17:16:03.581Z,20.83
2023-02-15T17:18:59.012Z,21.00
2023-02-15T17:21:50.664Z,20.83
2023-02-15T17:24:22.558Z,21.10
2023-02-15T17:27:13.054Z,22.50
2023-02-15T17:29:49.078Z,22.37
2023-02-15T17:32:27.907Z,22.23
2023-02-15T17:38:43.508Z,21.83
2023-02-15T17:41:15.505Z,23.33
2023-02-15T17:43:45.429Z,23.27
2023-02-15T17:46:24.779Z,24.13
2023-02-15T17:48:55.000Z,22.20
2023-02-15T17:51:22.205Z,23.40
2023-02-15T17:54:18.262Z,22.47
2023-02-15T17:56:45.111Z,23.47
2023-02-15T17:59:17.153Z,22.77
2023-02-15T18:02:13.230Z,22.93
2023-02-15T18:05:02.569Z,22.93
2023-02-15T18:07:59.446Z,22.57
2023-02-15T18:10:52.473Z,23.03
2023-02-15T18:13:44.138Z,21.83
2023-02-15T18:16:43.453Z,22.63
2023-02-15T18:19:23.347Z,22.17
2023-02-15T18:21:50.605Z,22.23
2023-02-15T18:24:26.057Z,21.80
2023-02-15T18:26:59.585Z,22.40
2023-02-15T18:29:37.026Z,22.17
2023-02-15T18:32:10.069Z,22.57
2023-02-15T18:34:44.034Z,22.20
2023-02-15T18:37:19.345Z,22.00
2023-02-15T18:39:54.576Z,22.30
2023-02-15T18:42:37.733Z,23.13
2023-02-15T18:45:19.704Z,23.43
2023-02-15T18:47:48.115Z,22.57
2023-02-15T18:50:23.544Z,23.63
2023-02-15T18:52:52.419Z,23.37
2023-02-15T18:55:24.847Z,22.80
2023-02-15T18:57:54.957Z,23.80
2023-02-15T19:00:31.175Z,23.37
2023-02-15T19:03:08.544Z,23.27
2023-02-15T19:05:36.915Z,24.50
2023-02-15T19:08:10.519Z,26.10
2023-02-15T19:10:40.772Z,25.27
2023-02-15T19:13:23.728Z,23.53
2023-02-15T19:16:08.413Z,23.07
2023-02-15T19:18:51.653Z,25.50
2023-02-15T19:21:32.382Z,25.00
2023-02-15T19:24:14.154Z,25.43
2023-02-15T19:27:25.327Z,24.00
2023-02-15T19:29:57.209Z,24.53
2023-02-15T19:32:24.542Z,23.77
2023-02-15T19:34:54.013Z,24.50
2023-02-15T19:37:41.855Z,23.97
2023-02-15T19:40:19.850Z,23.57
2023-02-15T19:42:56.760Z,24.97
2023-02-15T19:45:37.850Z,22.53
2023-02-15T19:48:12.638Z,25.17
2023-02-15T19:50:48.866Z,25.33
2023-02-15T19:53:29.389Z,25.40
2023-02-15T19:55:57.549Z,25.97
2023-02-15T19:58:32.947Z,24.70
2023-02-15T20:01:16.861Z,24.73
2023-02-15T20:03:46.949Z,23.73
2023-02-15T20:06:16.538Z,23.93
2023-02-15T20:08:46.623Z,24.70
2023-02-15T20:11:14.864Z,24.10
2023-02-15T20:14:00.432Z,23.73
2023-02-15T20:16:33.496Z,23.57
2023-02-15T20:19:01.381Z,23.90
2023-02-15T20:21:42.540Z,25.00
2023-02-15T20:27:19.883Z,24.07
2023-02-15T20:29:47.368Z,26.10
2023-02-15T20:32:15.656Z,25.57
2023-02-15T20:34:54.915Z,25.07
2023-02-15T20:37:34.193Z,25.53
2023-02-15T20:40:23.535Z,25.43
2023-02-15T20:43:02.774Z,25.33
2023-02-15T20:45:39.358Z,24.33
2023-02-15T20:48:15.020Z,24.43
2023-02-15T20:50:46.554Z,25.00
2023-02-15T20:53:27.543Z,24.03
2023-02-15T20:56:10.189Z,24.27
2023-02-15T20:59:08.892Z,24.50
2023-02-15T21:01:37.257Z,24.53
2023-02-15T21:04:06.760Z,23.93
2023-02-15T21:06:35.631Z,24.03
2023-02-15T21:09:03.441Z,24.40
2023-02-15T21:11:30.257Z,25.03
2023-02-15T21:13:56.929Z,24.00
2023-02-15T21:16:24.342Z,24.43
2023-02-15T21:18:51.172Z,24.20
2023-02-15T21:21:23.972Z,23.63
2023-02-15T21:23:51.842Z,24.43
2023-02-15T21:26:22.903Z,23.77
2023-02-15T21:28:50.649Z,24.33
2023-02-15T21:31:19.975Z,22.27
2023-02-15T21:33:46.908Z,24.33
2023-02-15T21:36:19.117Z,22.77
2023-02-15T21:38:46.817Z,22.53
2023-02-15T21:41:39.791Z,23.70
2023-02-15T21:44:33.759Z,23.70
2023-02-15T21:47:19.053Z,23.63
2023-02-15T21:49:46.544Z,23.87
2023-02-15T21:52:14.670Z,22.73
2023-02-15T21:54:41.566Z,23.70
2023-02-15T21:57:13.956Z,23.13
2023-02-15T21:59:44.081Z,22.57
2023-02-15T22:02:25.357Z,23.17
2023-02-15T22:04:52.640Z,22.20
2023-02-15T22:07:19.580Z,23.17
2023-02-15T22:09:46.425Z,22.47
2023-02-15T22:12:19.801Z,23.67
2023-02-15T22:14:50.884Z,21.70
2023-02-15T22:17:22.074Z,23.03
2023-02-15T22:19:49.959Z,22.80
2023-02-15T22:22:17.650Z,22.73
2023-02-15T22:24:45.583Z,22.73
2023-02-15T22:27:25.980Z,23.53
2023-02-15T22:29:53.214Z,24.20
2023-02-15T22:32:25.413Z,23.70
2023-02-15T22:34:53.483Z,22.73
2023-02-15T22:37:20.825Z,24.10
2023-02-15T22:39:47.699Z,24.40
2023-02-15T22:42:32.972Z,24.27
2023-02-15T22:45:00.302Z,24.90
2023-02-15T22:47:29.055Z,23.17
2023-02-15T22:49:55.986Z,22.83
2023-02-15T22:52:23.015Z,24.83
2023-02-15T22:54:49.895Z,23.37
2023-02-15T22:57:29.978Z,23.57
2023-02-15T22:59:57.432Z,24.63
2023-02-15T23:02:24.253Z,23.40
2023-02-15T23:05:18.084Z,23.07
2023-02-15T23:07:45.562Z,23.67
2023-02-15T23:10:21.247Z,23.60
2023-02-15T23:13:14.661Z,23.20
2023-02-15T23:15:55.034Z,23.77
2023-02-15T23:18:24.389Z,23.37
2023-02-15T23:20:54.688Z,24.50
2023-02-15T23:23:34.047Z,25.30
2023-02-15T23:26:03.922Z,23.73
2023-02-15T23:28:36.801Z,24.27
2023-02-15T23:31:11.081Z,23.17
2023-02-15T23:33:38.167Z,23.63
2023-02-15T23:36:05.235Z,23.40
2023-02-15T23:38:32.876Z,23.30
2023-02-15T23:41:20.313Z,23.67
2023-02-15T23:43:54.184Z,23.33
2023-02-15T23:46:29.925Z,23.77
2023-02-15T23:48:57.074Z,24.17
2023-02-15T23:51:29.780Z,23.13
2023-02-15T23:53:57.953Z,22.97
2023-02-15T23:56:24.645Z,24.17
2023-02-15T23:58:51.695Z,22.50
